sensor_id;sensor_type;location;lat;lon;timestamp;P1;durP1;ratioP1;P2;durP2;ratioP2
37805;SDS011;25082;50.870;0.022;2023-07-31T00:02:14;14.40;;;4.72;;
37805;SDS011;25082;50.870;0.022;2023-07-31T00:04:40;12.05;;;4.95;;
37805;SDS011;25082;50.870;0.022;2023-07-31T00:07:05;13.95;;;5.00;;
37805;SDS011;25082;50.870;0.022;2023-07-31T00:09:32;10.30;;;5.18;;
37805;SDS011;25082;50.870;0.022;2023-07-31T00:11:58;14.05;;;4.97;;
37805;SDS011;25082;50.870;0.022;2023-07-31T00:14:24;12.82;;;5.18;;
37805;SDS011;25082;50.870;0.022;2023-07-31T00:16:50;11.82;;;5.38;;
37805;SDS011;25082;50.870;0.022;2023-07-31T00:19:16;10.65;;;4.55;;
37805;SDS011;25082;50.870;0.022;2023-07-31T00:21:41;11.40;;;4.90;;
37805;SDS011;25082;50.870;0.022;2023-07-31T00:24:07;10.15;;;4.65;;
37805;SDS011;25082;50.870;0.022;2023-07-31T00:26:33;9.98;;;4.43;;
37805;SDS011;25082;50.870;0.022;2023-07-31T00:28:58;10.82;;;4.40;;
37805;SDS011;25082;50.870;0.022;2023-07-31T00:31:24;9.63;;;4.00;;
37805;SDS011;25082;50.870;0.022;2023-07-31T00:33:50;14.82;;;5.28;;
37805;SDS011;25082;50.870;0.022;2023-07-31T00:36:15;10.55;;;4.38;;
37805;SDS011;25082;50.870;0.022;2023-07-31T00:38:43;9.75;;;3.97;;
37805;SDS011;25082;50.870;0.022;2023-07-31T00:41:08;8.23;;;4.03;;
37805;SDS011;25082;50.870;0.022;2023-07-31T00:43:34;9.07;;;4.22;;
37805;SDS011;25082;50.870;0.022;2023-07-31T00:46:00;9.32;;;3.90;;
37805;SDS011;25082;50.870;0.022;2023-07-31T00:48:26;12.75;;;4.70;;
37805;SDS011;25082;50.870;0.022;2023-07-31T00:50:52;9.18;;;3.83;;
37805;SDS011;25082;50.870;0.022;2023-07-31T00:53:18;11.00;;;3.90;;
37805;SDS011;25082;50.870;0.022;2023-07-31T00:55:43;11.32;;;4.25;;
37805;SDS011;25082;50.870;0.022;2023-07-31T00:58:09;10.10;;;3.63;;
37805;SDS011;25082;50.870;0.022;2023-07-31T01:00:35;7.65;;;3.75;;
37805;SDS011;25082;50.870;0.022;2023-07-31T01:03:01;9.32;;;3.75;;
37805;SDS011;25082;50.870;0.022;2023-07-31T01:08:39;9.05;;;4.18;;
37805;SDS011;25082;50.870;0.022;2023-07-31T01:11:38;11.82;;;4.18;;
37805;SDS011;25082;50.870;0.022;2023-07-31T01:14:17;7.80;;;3.72;;
37805;SDS011;25082;50.870;0.022;2023-07-31T01:16:42;8.10;;;3.42;;
37805;SDS011;25082;50.870;0.022;2023-07-31T01:19:08;7.32;;;3.35;;
37805;SDS011;25082;50.870;0.022;2023-07-31T01:26:43;8.50;;;3.08;;
37805;SDS011;25082;50.870;0.022;2023-07-31T01:32:01;9.70;;;4.07;;
37805;SDS011;25082;50.870;0.022;2023-07-31T01:34:28;8.15;;;3.70;;
37805;SDS011;25082;50.870;0.022;2023-07-31T01:36:58;5.78;;;3.17;;
37805;SDS011;25082;50.870;0.022;2023-07-31T01:39:24;8.50;;;3.42;;
37805;SDS011;25082;50.870;0.022;2023-07-31T01:41:50;9.43;;;4.00;;
37805;SDS011;25082;50.870;0.022;2023-07-31T01:44:16;6.22;;;3.55;;
37805;SDS011;25082;50.870;0.022;2023-07-31T01:46:41;7.97;;;3.00;;
37805;SDS011;25082;50.870;0.022;2023-07-31T01:49:07;9.80;;;3.28;;
37805;SDS011;25082;50.870;0.022;2023-07-31T01:51:33;7.95;;;3.42;;
37805;SDS011;25082;50.870;0.022;2023-07-31T01:54:01;7.22;;;2.72;;
37805;SDS011;25082;50.870;0.022;2023-07-31T01:56:27;6.20;;;3.28;;
37805;SDS011;25082;50.870;0.022;2023-07-31T01:58:53;8.73;;;3.75;;
37805;SDS011;25082;50.870;0.022;2023-07-31T02:01:19;9.85;;;3.00;;
37805;SDS011;25082;50.870;0.022;2023-07-31T02:03:45;7.13;;;3.47;;
37805;SDS011;25082;50.870;0.022;2023-07-31T02:06:10;8.45;;;3.65;;
37805;SDS011;25082;50.870;0.022;2023-07-31T02:08:36;8.18;;;3.53;;
37805;SDS011;25082;50.870;0.022;2023-07-31T02:11:02;8.38;;;3.22;;
37805;SDS011;25082;50.870;0.022;2023-07-31T02:13:28;10.15;;;3.55;;
37805;SDS011;25082;50.870;0.022;2023-07-31T02:15:54;9.82;;;4.10;;
37805;SDS011;25082;50.870;0.022;2023-07-31T02:18:19;8.27;;;3.13;;
37805;SDS011;25082;50.870;0.022;2023-07-31T02:20:50;6.75;;;3.08;;
37805;SDS011;25082;50.870;0.022;2023-07-31T02:23:17;7.78;;;3.15;;
37805;SDS011;25082;50.870;0.022;2023-07-31T02:25:44;9.63;;;4.13;;
37805;SDS011;25082;50.870;0.022;2023-07-31T02:28:10;10.45;;;5.00;;
37805;SDS011;25082;50.870;0.022;2023-07-31T02:30:36;9.32;;;4.32;;
37805;SDS011;25082;50.870;0.022;2023-07-31T02:33:01;10.85;;;3.90;;
37805;SDS011;25082;50.870;0.022;2023-07-31T02:35:27;13.30;;;4.32;;
37805;SDS011;25082;50.870;0.022;2023-07-31T02:37:53;11.55;;;3.92;;
37805;SDS011;25082;50.870;0.022;2023-07-31T02:40:18;8.80;;;3.50;;
37805;SDS011;25082;50.870;0.022;2023-07-31T02:42:44;12.57;;;3.72;;
37805;SDS011;25082;50.870;0.022;2023-07-31T02:45:10;11.57;;;4.03;;
37805;SDS011;25082;50.870;0.022;2023-07-31T02:47:36;8.90;;;3.67;;
37805;SDS011;25082;50.870;0.022;2023-07-31T02:50:02;9.77;;;4.25;;
37805;SDS011;25082;50.870;0.022;2023-07-31T02:52:28;9.10;;;3.63;;
37805;SDS011;25082;50.870;0.022;2023-07-31T02:54:54;11.82;;;3.67;;
37805;SDS011;25082;50.870;0.022;2023-07-31T02:57:20;10.15;;;3.92;;
37805;SDS011;25082;50.870;0.022;2023-07-31T02:59:45;10.95;;;4.35;;
37805;SDS011;25082;50.870;0.022;2023-07-31T03:02:11;10.30;;;4.63;;
37805;SDS011;25082;50.870;0.022;2023-07-31T03:04:38;9.05;;;3.70;;
37805;SDS011;25082;50.870;0.022;2023-07-31T03:07:04;12.52;;;4.28;;
37805;SDS011;25082;50.870;0.022;2023-07-31T03:09:30;13.77;;;4.68;;
37805;SDS011;25082;50.870;0.022;2023-07-31T03:11:56;9.77;;;3.88;;
37805;SDS011;25082;50.870;0.022;2023-07-31T03:14:21;8.40;;;3.13;;
37805;SDS011;25082;50.870;0.022;2023-07-31T03:16:47;10.73;;;4.55;;
37805;SDS011;25082;50.870;0.022;2023-07-31T03:19:13;9.35;;;3.70;;
37805;SDS011;25082;50.870;0.022;2023-07-31T03:21:39;8.15;;;3.47;;
37805;SDS011;25082;50.870;0.022;2023-07-31T03:24:05;8.30;;;3.80;;
37805;SDS011;25082;50.870;0.022;2023-07-31T03:26:31;10.38;;;4.25;;
37805;SDS011;25082;50.870;0.022;2023-07-31T03:28:57;9.70;;;3.83;;
37805;SDS011;25082;50.870;0.022;2023-07-31T03:31:23;11.18;;;4.05;;
37805;SDS011;25082;50.870;0.022;2023-07-31T03:33:49;8.73;;;3.60;;
37805;SDS011;25082;50.870;0.022;2023-07-31T03:36:14;10.05;;;4.00;;
37805;SDS011;25082;50.870;0.022;2023-07-31T03:38:40;9.73;;;3.53;;
37805;SDS011;25082;50.870;0.022;2023-07-31T03:41:06;9.07;;;3.40;;
37805;SDS011;25082;50.870;0.022;2023-07-31T03:43:32;8.95;;;4.07;;
37805;SDS011;25082;50.870;0.022;2023-07-31T03:46:00;8.15;;;3.45;;
37805;SDS011;25082;50.870;0.022;2023-07-31T03:48:27;8.30;;;4.10;;
37805;SDS011;25082;50.870;0.022;2023-07-31T03:50:53;8.98;;;3.05;;
37805;SDS011;25082;50.870;0.022;2023-07-31T03:53:19;9.25;;;3.50;;
37805;SDS011;25082;50.870;0.022;2023-07-31T03:55:45;8.75;;;3.28;;
37805;SDS011;25082;50.870;0.022;2023-07-31T03:58:11;10.10;;;3.38;;
37805;SDS011;25082;50.870;0.022;2023-07-31T04:00:36;10.23;;;3.38;;
37805;SDS011;25082;50.870;0.022;2023-07-31T04:03:02;7.97;;;3.35;;
37805;SDS011;25082;50.870;0.022;2023-07-31T04:05:29;8.13;;;3.05;;
37805;SDS011;25082;50.870;0.022;2023-07-31T04:07:56;7.93;;;2.83;;
37805;SDS011;25082;50.870;0.022;2023-07-31T04:10:22;7.03;;;3.35;;
37805;SDS011;25082;50.870;0.022;2023-07-31T04:12:48;9.20;;;3.40;;
37805;SDS011;25082;50.870;0.022;2023-07-31T04:15:13;8.75;;;3.15;;
37805;SDS011;25082;50.870;0.022;2023-07-31T04:17:39;7.43;;;3.92;;
37805;SDS011;25082;50.870;0.022;2023-07-31T04:20:05;6.63;;;2.90;;
37805;SDS011;25082;50.870;0.022;2023-07-31T04:22:31;6.07;;;2.83;;
37805;SDS011;25082;50.870;0.022;2023-07-31T04:24:57;8.38;;;2.92;;
37805;SDS011;25082;50.870;0.022;2023-07-31T04:27:23;8.35;;;2.63;;
37805;SDS011;25082;50.870;0.022;2023-07-31T04:29:49;7.35;;;2.78;;
37805;SDS011;25082;50.870;0.022;2023-07-31T04:32:14;7.55;;;2.97;;
37805;SDS011;25082;50.870;0.022;2023-07-31T04:34:44;9.32;;;3.88;;
37805;SDS011;25082;50.870;0.022;2023-07-31T04:37:10;7.78;;;2.95;;
37805;SDS011;25082;50.870;0.022;2023-07-31T04:39:35;8.88;;;3.17;;
37805;SDS011;25082;50.870;0.022;2023-07-31T04:42:01;7.18;;;2.90;;
37805;SDS011;25082;50.870;0.022;2023-07-31T04:44:27;7.88;;;3.25;;
37805;SDS011;25082;50.870;0.022;2023-07-31T04:46:53;9.60;;;3.55;;
37805;SDS011;25082;50.870;0.022;2023-07-31T04:49:18;6.82;;;3.03;;
37805;SDS011;25082;50.870;0.022;2023-07-31T04:51:44;10.88;;;3.17;;
37805;SDS011;25082;50.870;0.022;2023-07-31T04:54:10;11.25;;;3.13;;
37805;SDS011;25082;50.870;0.022;2023-07-31T04:56:37;6.75;;;3.30;;
37805;SDS011;25082;50.870;0.022;2023-07-31T04:59:03;5.60;;;2.60;;
37805;SDS011;25082;50.870;0.022;2023-07-31T05:01:29;6.78;;;3.60;;
37805;SDS011;25082;50.870;0.022;2023-07-31T05:03:54;6.82;;;2.67;;
37805;SDS011;25082;50.870;0.022;2023-07-31T05:06:20;9.77;;;3.17;;
37805;SDS011;25082;50.870;0.022;2023-07-31T05:08:46;8.82;;;3.40;;
37805;SDS011;25082;50.870;0.022;2023-07-31T05:11:11;6.38;;;3.17;;
37805;SDS011;25082;50.870;0.022;2023-07-31T05:13:37;7.68;;;3.30;;
37805;SDS011;25082;50.870;0.022;2023-07-31T05:16:03;7.85;;;2.58;;
37805;SDS011;25082;50.870;0.022;2023-07-31T05:18:29;6.38;;;2.65;;
37805;SDS011;25082;50.870;0.022;2023-07-31T05:20:55;6.88;;;2.90;;
37805;SDS011;25082;50.870;0.022;2023-07-31T05:23:20;6.07;;;2.85;;
37805;SDS011;25082;50.870;0.022;2023-07-31T05:25:46;8.93;;;2.85;;
37805;SDS011;25082;50.870;0.022;2023-07-31T05:28:12;9.48;;;3.45;;
37805;SDS011;25082;50.870;0.022;2023-07-31T05:30:38;8.35;;;2.90;;
37805;SDS011;25082;50.870;0.022;2023-07-31T05:33:04;6.97;;;2.83;;
37805;SDS011;25082;50.870;0.022;2023-07-31T05:35:30;9.07;;;3.28;;
37805;SDS011;25082;50.870;0.022;2023-07-31T05:37:55;7.82;;;2.40;;
37805;SDS011;25082;50.870;0.022;2023-07-31T05:40:21;6.55;;;2.45;;
37805;SDS011;25082;50.870;0.022;2023-07-31T05:42:47;11.68;;;2.88;;
37805;SDS011;25082;50.870;0.022;2023-07-31T05:45:12;8.07;;;3.65;;
37805;SDS011;25082;50.870;0.022;2023-07-31T05:47:38;6.30;;;2.85;;
37805;SDS011;25082;50.870;0.022;2023-07-31T05:50:04;6.68;;;2.72;;
37805;SDS011;25082;50.870;0.022;2023-07-31T05:52:30;7.88;;;2.53;;
37805;SDS011;25082;50.870;0.022;2023-07-31T05:54:56;10.75;;;3.10;;
37805;SDS011;25082;50.870;0.022;2023-07-31T05:57:22;8.85;;;2.85;;
37805;SDS011;25082;50.870;0.022;2023-07-31T05:59:48;6.25;;;2.53;;
37805;SDS011;25082;50.870;0.022;2023-07-31T06:02:14;7.22;;;2.95;;
37805;SDS011;25082;50.870;0.022;2023-07-31T06:04:39;7.22;;;2.70;;
37805;SDS011;25082;50.870;0.022;2023-07-31T06:07:05;6.10;;;2.55;;
37805;SDS011;25082;50.870;0.022;2023-07-31T06:09:31;7.20;;;2.35;;
37805;SDS011;25082;50.870;0.022;2023-07-31T06:11:57;6.85;;;3.25;;
37805;SDS011;25082;50.870;0.022;2023-07-31T06:14:22;6.82;;;2.50;;
37805;SDS011;25082;50.870;0.022;2023-07-31T06:16:48;8.10;;;3.10;;
37805;SDS011;25082;50.870;0.022;2023-07-31T06:19:14;8.73;;;2.83;;
37805;SDS011;25082;50.870;0.022;2023-07-31T06:21:39;7.45;;;2.70;;
37805;SDS011;25082;50.870;0.022;2023-07-31T06:24:07;4.50;;;2.10;;
37805;SDS011;25082;50.870;0.022;2023-07-31T06:26:33;6.10;;;2.15;;
37805;SDS011;25082;50.870;0.022;2023-07-31T06:28:59;6.28;;;2.35;;
37805;SDS011;25082;50.870;0.022;2023-07-31T06:31:25;6.82;;;2.38;;
37805;SDS011;25082;50.870;0.022;2023-07-31T06:33:51;5.47;;;2.58;;
37805;SDS011;25082;50.870;0.022;2023-07-31T06:36:17;5.15;;;2.30;;
37805;SDS011;25082;50.870;0.022;2023-07-31T06:38:43;7.57;;;2.80;;
37805;SDS011;25082;50.870;0.022;2023-07-31T06:41:09;3.47;;;1.98;;
37805;SDS011;25082;50.870;0.022;2023-07-31T06:43:35;5.55;;;2.13;;
37805;SDS011;25082;50.870;0.022;2023-07-31T06:46:05;9.18;;;2.65;;
37805;SDS011;25082;50.870;0.022;2023-07-31T06:48:32;7.40;;;2.40;;
37805;SDS011;25082;50.870;0.022;2023-07-31T06:51:02;7.20;;;2.45;;
37805;SDS011;25082;50.870;0.022;2023-07-31T06:53:28;8.45;;;2.70;;
37805;SDS011;25082;50.870;0.022;2023-07-31T06:55:54;8.07;;;2.40;;
37805;SDS011;25082;50.870;0.022;2023-07-31T06:58:20;5.18;;;2.17;;
37805;SDS011;25082;50.870;0.022;2023-07-31T07:00:46;6.38;;;1.98;;
37805;SDS011;25082;50.870;0.022;2023-07-31T07:03:11;7.90;;;2.50;;
37805;SDS011;25082;50.870;0.022;2023-07-31T07:05:39;5.53;;;2.03;;
37805;SDS011;25082;50.870;0.022;2023-07-31T07:08:05;5.05;;;1.83;;
37805;SDS011;25082;50.870;0.022;2023-07-31T07:10:31;4.80;;;1.70;;
37805;SDS011;25082;50.870;0.022;2023-07-31T07:12:57;7.10;;;2.42;;
37805;SDS011;25082;50.870;0.022;2023-07-31T07:15:22;6.50;;;1.98;;
37805;SDS011;25082;50.870;0.022;2023-07-31T07:17:48;6.75;;;2.38;;
37805;SDS011;25082;50.870;0.022;2023-07-31T07:20:14;5.22;;;1.92;;
37805;SDS011;25082;50.870;0.022;2023-07-31T07:22:40;4.97;;;2.25;;
37805;SDS011;25082;50.870;0.022;2023-07-31T07:25:08;3.75;;;1.90;;
37805;SDS011;25082;50.870;0.022;2023-07-31T07:27:34;3.78;;;1.27;;
37805;SDS011;25082;50.870;0.022;2023-07-31T07:29:59;5.07;;;2.03;;
37805;SDS011;25082;50.870;0.022;2023-07-31T07:32:25;5.88;;;2.22;;
37805;SDS011;25082;50.870;0.022;2023-07-31T07:34:51;7.35;;;2.38;;
37805;SDS011;25082;50.870;0.022;2023-07-31T07:37:17;6.38;;;2.63;;
37805;SDS011;25082;50.870;0.022;2023-07-31T07:39:43;7.72;;;2.70;;
37805;SDS011;25082;50.870;0.022;2023-07-31T07:42:09;5.00;;;2.10;;
37805;SDS011;25082;50.870;0.022;2023-07-31T07:44:34;8.20;;;2.45;;
37805;SDS011;25082;50.870;0.022;2023-07-31T07:47:00;8.32;;;2.67;;
37805;SDS011;25082;50.870;0.022;2023-07-31T07:49:26;7.55;;;2.78;;
37805;SDS011;25082;50.870;0.022;2023-07-31T07:51:52;8.15;;;2.63;;
37805;SDS011;25082;50.870;0.022;2023-07-31T07:54:17;6.90;;;2.20;;
37805;SDS011;25082;50.870;0.022;2023-07-31T07:56:44;8.77;;;2.85;;
37805;SDS011;25082;50.870;0.022;2023-07-31T07:59:09;6.82;;;2.55;;
37805;SDS011;25082;50.870;0.022;2023-07-31T08:01:35;8.27;;;2.83;;
37805;SDS011;25082;50.870;0.022;2023-07-31T08:04:01;5.28;;;2.10;;
37805;SDS011;25082;50.870;0.022;2023-07-31T08:06:27;6.18;;;2.50;;
37805;SDS011;25082;50.870;0.022;2023-07-31T08:08:54;6.35;;;2.42;;
37805;SDS011;25082;50.870;0.022;2023-07-31T08:11:20;6.05;;;2.35;;
37805;SDS011;25082;50.870;0.022;2023-07-31T08:13:48;5.95;;;2.30;;
37805;SDS011;25082;50.870;0.022;2023-07-31T08:16:13;5.85;;;2.38;;
37805;SDS011;25082;50.870;0.022;2023-07-31T08:18:39;9.68;;;2.30;;
37805;SDS011;25082;50.870;0.022;2023-07-31T08:21:05;9.50;;;2.58;;
37805;SDS011;25082;50.870;0.022;2023-07-31T08:23:31;8.10;;;2.45;;
37805;SDS011;25082;50.870;0.022;2023-07-31T08:25:57;7.30;;;2.28;;
37805;SDS011;25082;50.870;0.022;2023-07-31T08:28:22;9.68;;;2.10;;
37805;SDS011;25082;50.870;0.022;2023-07-31T08:30:48;13.75;;;2.38;;
37805;SDS011;25082;50.870;0.022;2023-07-31T08:33:15;7.70;;;2.67;;
37805;SDS011;25082;50.870;0.022;2023-07-31T08:35:41;8.15;;;2.15;;
37805;SDS011;25082;50.870;0.022;2023-07-31T08:38:06;5.97;;;2.53;;
37805;SDS011;25082;50.870;0.022;2023-07-31T08:40:35;7.20;;;2.67;;
37805;SDS011;25082;50.870;0.022;2023-07-31T08:43:02;7.93;;;2.20;;
37805;SDS011;25082;50.870;0.022;2023-07-31T08:45:29;6.60;;;1.98;;
37805;SDS011;25082;50.870;0.022;2023-07-31T08:47:56;8.00;;;1.95;;
37805;SDS011;25082;50.870;0.022;2023-07-31T08:50:24;8.05;;;2.00;;
37805;SDS011;25082;50.870;0.022;2023-07-31T08:52:51;8.60;;;2.08;;
37805;SDS011;25082;50.870;0.022;2023-07-31T08:55:17;7.38;;;1.95;;
37805;SDS011;25082;50.870;0.022;2023-07-31T08:57:48;6.15;;;2.35;;
37805;SDS011;25082;50.870;0.022;2023-07-31T09:00:16;5.88;;;1.75;;
37805;SDS011;25082;50.870;0.022;2023-07-31T09:02:48;6.28;;;2.55;;
37805;SDS011;25082;50.870;0.022;2023-07-31T09:05:33;4.63;;;2.22;;
37805;SDS011;25082;50.870;0.022;2023-07-31T09:08:00;5.40;;;2.30;;
37805;SDS011;25082;50.870;0.022;2023-07-31T09:10:29;5.00;;;2.05;;
37805;SDS011;25082;50.870;0.022;2023-07-31T09:12:55;5.28;;;1.90;;
37805;SDS011;25082;50.870;0.022;2023-07-31T09:15:21;5.03;;;1.67;;
37805;SDS011;25082;50.870;0.022;2023-07-31T09:17:50;7.35;;;2.15;;
37805;SDS011;25082;50.870;0.022;2023-07-31T09:20:27;6.40;;;2.30;;
37805;SDS011;25082;50.870;0.022;2023-07-31T09:22:53;6.63;;;1.70;;
37805;SDS011;25082;50.870;0.022;2023-07-31T09:25:21;7.55;;;1.92;;
37805;SDS011;25082;50.870;0.022;2023-07-31T09:27:54;4.90;;;2.00;;
37805;SDS011;25082;50.870;0.022;2023-07-31T09:30:24;5.07;;;2.15;;
37805;SDS011;25082;50.870;0.022;2023-07-31T09:32:50;4.10;;;1.67;;
37805;SDS011;25082;50.870;0.022;2023-07-31T09:35:34;5.05;;;1.70;;
37805;SDS011;25082;50.870;0.022;2023-07-31T09:38:03;7.25;;;1.85;;
37805;SDS011;25082;50.870;0.022;2023-07-31T09:40:31;8.10;;;1.88;;
37805;SDS011;25082;50.870;0.022;2023-07-31T09:43:19;5.15;;;1.30;;
37805;SDS011;25082;50.870;0.022;2023-07-31T09:45:46;5.35;;;1.83;;
37805;SDS011;25082;50.870;0.022;2023-07-31T09:48:13;10.20;;;2.30;;
37805;SDS011;25082;50.870;0.022;2023-07-31T09:50:46;4.68;;;1.95;;
37805;SDS011;25082;50.870;0.022;2023-07-31T09:53:13;11.25;;;1.95;;
37805;SDS011;25082;50.870;0.022;2023-07-31T09:55:41;6.72;;;2.15;;
37805;SDS011;25082;50.870;0.022;2023-07-31T09:58:08;7.28;;;1.58;;
37805;SDS011;25082;50.870;0.022;2023-07-31T10:00:36;6.03;;;1.85;;
37805;SDS011;25082;50.870;0.022;2023-07-31T10:03:04;8.85;;;1.83;;
37805;SDS011;25082;50.870;0.022;2023-07-31T10:05:33;6.20;;;1.77;;
37805;SDS011;25082;50.870;0.022;2023-07-31T10:08:01;4.03;;;1.40;;
37805;SDS011;25082;50.870;0.022;2023-07-31T10:10:27;3.63;;;1.33;;
37805;SDS011;25082;50.870;0.022;2023-07-31T10:12:54;5.88;;;1.40;;
37805;SDS011;25082;50.870;0.022;2023-07-31T10:15:22;6.35;;;2.13;;
37805;SDS011;25082;50.870;0.022;2023-07-31T10:17:48;7.55;;;1.45;;
37805;SDS011;25082;50.870;0.022;2023-07-31T10:20:15;5.65;;;1.50;;
37805;SDS011;25082;50.870;0.022;2023-07-31T10:22:42;6.35;;;1.70;;
37805;SDS011;25082;50.870;0.022;2023-07-31T10:25:10;3.47;;;1.40;;
37805;SDS011;25082;50.870;0.022;2023-07-31T10:27:38;6.10;;;1.60;;
37805;SDS011;25082;50.870;0.022;2023-07-31T10:30:05;6.72;;;1.42;;
37805;SDS011;25082;50.870;0.022;2023-07-31T10:32:34;3.60;;;1.20;;
37805;SDS011;25082;50.870;0.022;2023-07-31T10:35:04;4.80;;;1.60;;
37805;SDS011;25082;50.870;0.022;2023-07-31T10:37:38;4.60;;;1.08;;
37805;SDS011;25082;50.870;0.022;2023-07-31T10:40:09;6.80;;;1.58;;
37805;SDS011;25082;50.870;0.022;2023-07-31T10:45:12;4.13;;;1.20;;
37805;SDS011;25082;50.870;0.022;2023-07-31T10:47:45;3.88;;;1.27;;
37805;SDS011;25082;50.870;0.022;2023-07-31T10:50:12;3.22;;;0.90;;
37805;SDS011;25082;50.870;0.022;2023-07-31T10:52:48;8.65;;;1.35;;
37805;SDS011;25082;50.870;0.022;2023-07-31T10:58:11;6.10;;;1.30;;
37805;SDS011;25082;50.870;0.022;2023-07-31T11:00:38;5.78;;;1.17;;
37805;SDS011;25082;50.870;0.022;2023-07-31T11:03:13;2.78;;;0.93;;
37805;SDS011;25082;50.870;0.022;2023-07-31T11:08:12;3.50;;;0.98;;
37805;SDS011;25082;50.870;0.022;2023-07-31T11:10:38;3.22;;;1.25;;
37805;SDS011;25082;50.870;0.022;2023-07-31T11:13:04;5.10;;;1.60;;
37805;SDS011;25082;50.870;0.022;2023-07-31T11:15:30;2.10;;;0.70;;
37805;SDS011;25082;50.870;0.022;2023-07-31T11:17:56;6.55;;;1.08;;
37805;SDS011;25082;50.870;0.022;2023-07-31T11:20:24;4.30;;;0.88;;
37805;SDS011;25082;50.870;0.022;2023-07-31T11:22:50;2.45;;;0.85;;
37805;SDS011;25082;50.870;0.022;2023-07-31T11:25:16;3.72;;;0.70;;
37805;SDS011;25082;50.870;0.022;2023-07-31T11:27:42;6.00;;;1.05;;
37805;SDS011;25082;50.870;0.022;2023-07-31T11:30:09;3.17;;;1.23;;
37805;SDS011;25082;50.870;0.022;2023-07-31T11:32:36;6.15;;;0.88;;
37805;SDS011;25082;50.870;0.022;2023-07-31T11:35:02;4.07;;;0.90;;
37805;SDS011;25082;50.870;0.022;2023-07-31T11:37:42;4.78;;;0.90;;
37805;SDS011;25082;50.870;0.022;2023-07-31T11:40:09;5.40;;;1.20;;
37805;SDS011;25082;50.870;0.022;2023-07-31T11:42:35;5.82;;;0.85;;
37805;SDS011;25082;50.870;0.022;2023-07-31T11:45:02;6.90;;;1.17;;
37805;SDS011;25082;50.870;0.022;2023-07-31T11:47:33;4.05;;;1.02;;
37805;SDS011;25082;50.870;0.022;2023-07-31T11:50:00;2.70;;;0.63;;
37805;SDS011;25082;50.870;0.022;2023-07-31T11:52:27;3.60;;;0.80;;
37805;SDS011;25082;50.870;0.022;2023-07-31T11:54:55;6.60;;;0.88;;
37805;SDS011;25082;50.870;0.022;2023-07-31T11:57:22;4.70;;;1.10;;
37805;SDS011;25082;50.870;0.022;2023-07-31T11:59:48;2.40;;;0.70;;
37805;SDS011;25082;50.870;0.022;2023-07-31T12:02:15;3.03;;;1.02;;
37805;SDS011;25082;50.870;0.022;2023-07-31T12:04:43;5.00;;;0.98;;
37805;SDS011;25082;50.870;0.022;2023-07-31T12:07:09;3.47;;;0.93;;
37805;SDS011;25082;50.870;0.022;2023-07-31T12:09:34;4.30;;;0.90;;
37805;SDS011;25082;50.870;0.022;2023-07-31T12:12:00;6.40;;;1.00;;
37805;SDS011;25082;50.870;0.022;2023-07-31T12:14:29;1.60;;;0.65;;
37805;SDS011;25082;50.870;0.022;2023-07-31T12:16:59;3.63;;;0.70;;
37805;SDS011;25082;50.870;0.022;2023-07-31T12:19:29;4.60;;;1.05;;
37805;SDS011;25082;50.870;0.022;2023-07-31T12:21:58;3.30;;;1.00;;
37805;SDS011;25082;50.870;0.022;2023-07-31T12:24:27;3.60;;;0.77;;
37805;SDS011;25082;50.870;0.022;2023-07-31T12:26:53;5.25;;;0.95;;
37805;SDS011;25082;50.870;0.022;2023-07-31T12:29:20;3.63;;;1.10;;
37805;SDS011;25082;50.870;0.022;2023-07-31T12:31:46;4.78;;;1.30;;
37805;SDS011;25082;50.870;0.022;2023-07-31T12:34:18;32.10;;;17.17;;
37805;SDS011;25082;50.870;0.022;2023-07-31T12:36:48;43.38;;;22.30;;
37805;SDS011;25082;50.870;0.022;2023-07-31T12:39:14;51.38;;;28.70;;
37805;SDS011;25082;50.870;0.022;2023-07-31T12:41:40;57.20;;;33.28;;
37805;SDS011;25082;50.870;0.022;2023-07-31T12:44:06;49.65;;;32.30;;
37805;SDS011;25082;50.870;0.022;2023-07-31T12:46:31;52.47;;;32.97;;
37805;SDS011;25082;50.870;0.022;2023-07-31T12:48:58;48.88;;;31.83;;
37805;SDS011;25082;50.870;0.022;2023-07-31T12:51:23;50.90;;;29.85;;
37805;SDS011;25082;50.870;0.022;2023-07-31T12:53:49;45.92;;;28.17;;
37805;SDS011;25082;50.870;0.022;2023-07-31T12:56:15;38.08;;;26.42;;
37805;SDS011;25082;50.870;0.022;2023-07-31T12:58:40;43.67;;;25.30;;
37805;SDS011;25082;50.870;0.022;2023-07-31T13:01:06;37.88;;;24.98;;
37805;SDS011;25082;50.870;0.022;2023-07-31T13:03:32;44.85;;;25.02;;
37805;SDS011;25082;50.870;0.022;2023-07-31T13:05:57;34.65;;;24.13;;
37805;SDS011;25082;50.870;0.022;2023-07-31T13:08:23;34.20;;;22.67;;
37805;SDS011;25082;50.870;0.022;2023-07-31T13:10:49;38.50;;;21.92;;
37805;SDS011;25082;50.870;0.022;2023-07-31T13:13:14;32.72;;;21.30;;
37805;SDS011;25082;50.870;0.022;2023-07-31T13:15:40;37.00;;;22.00;;
37805;SDS011;25082;50.870;0.022;2023-07-31T13:18:06;38.95;;;23.13;;
37805;SDS011;25082;50.870;0.022;2023-07-31T13:20:32;33.08;;;19.77;;
37805;SDS011;25082;50.870;0.022;2023-07-31T13:22:57;28.55;;;19.40;;
37805;SDS011;25082;50.870;0.022;2023-07-31T13:25:23;29.10;;;16.58;;
37805;SDS011;25082;50.870;0.022;2023-07-31T13:27:49;28.88;;;17.40;;
37805;SDS011;25082;50.870;0.022;2023-07-31T13:30:15;21.55;;;15.68;;
37805;SDS011;25082;50.870;0.022;2023-07-31T13:32:40;24.10;;;14.77;;
37805;SDS011;25082;50.870;0.022;2023-07-31T13:35:06;21.83;;;13.98;;
37805;SDS011;25082;50.870;0.022;2023-07-31T13:37:33;29.27;;;15.02;;
37805;SDS011;25082;50.870;0.022;2023-07-31T13:39:59;22.15;;;12.82;;
37805;SDS011;25082;50.870;0.022;2023-07-31T13:42:25;22.10;;;11.07;;
37805;SDS011;25082;50.870;0.022;2023-07-31T13:44:51;18.55;;;10.50;;
37805;SDS011;25082;50.870;0.022;2023-07-31T13:47:17;20.90;;;10.60;;
37805;SDS011;25082;50.870;0.022;2023-07-31T13:49:43;18.48;;;10.88;;
37805;SDS011;25082;50.870;0.022;2023-07-31T13:52:09;16.23;;;9.85;;
37805;SDS011;25082;50.870;0.022;2023-07-31T13:54:34;16.30;;;9.85;;
37805;SDS011;25082;50.870;0.022;2023-07-31T13:57:00;16.30;;;9.80;;
37805;SDS011;25082;50.870;0.022;2023-07-31T13:59:26;17.48;;;10.10;;
37805;SDS011;25082;50.870;0.022;2023-07-31T14:01:52;15.82;;;10.00;;
37805;SDS011;25082;50.870;0.022;2023-07-31T14:04:18;15.43;;;9.20;;
37805;SDS011;25082;50.870;0.022;2023-07-31T14:06:44;18.42;;;8.85;;
37805;SDS011;25082;50.870;0.022;2023-07-31T14:09:10;13.45;;;7.53;;
37805;SDS011;25082;50.870;0.022;2023-07-31T14:11:35;15.93;;;7.93;;
37805;SDS011;25082;50.870;0.022;2023-07-31T14:14:01;15.02;;;8.52;;
37805;SDS011;25082;50.870;0.022;2023-07-31T14:16:27;15.35;;;7.10;;
37805;SDS011;25082;50.870;0.022;2023-07-31T14:18:53;10.02;;;6.13;;
37805;SDS011;25082;50.870;0.022;2023-07-31T14:21:19;13.38;;;6.70;;
37805;SDS011;25082;50.870;0.022;2023-07-31T14:23:45;16.75;;;6.85;;
37805;SDS011;25082;50.870;0.022;2023-07-31T14:26:11;14.65;;;6.35;;
37805;SDS011;25082;50.870;0.022;2023-07-31T14:28:37;13.25;;;6.35;;
37805;SDS011;25082;50.870;0.022;2023-07-31T14:31:03;11.88;;;5.93;;
37805;SDS011;25082;50.870;0.022;2023-07-31T14:33:29;12.43;;;6.78;;
37805;SDS011;25082;50.870;0.022;2023-07-31T14:35:55;9.20;;;5.72;;
37805;SDS011;25082;50.870;0.022;2023-07-31T14:38:20;12.90;;;6.45;;
37805;SDS011;25082;50.870;0.022;2023-07-31T14:40:46;10.25;;;6.03;;
37805;SDS011;25082;50.870;0.022;2023-07-31T14:43:12;9.68;;;4.63;;
37805;SDS011;25082;50.870;0.022;2023-07-31T14:45:38;8.40;;;5.32;;
37805;SDS011;25082;50.870;0.022;2023-07-31T14:48:04;10.15;;;5.13;;
37805;SDS011;25082;50.870;0.022;2023-07-31T14:50:29;11.05;;;5.00;;
37805;SDS011;25082;50.870;0.022;2023-07-31T14:52:55;7.45;;;5.03;;
37805;SDS011;25082;50.870;0.022;2023-07-31T14:55:21;8.73;;;4.18;;
37805;SDS011;25082;50.870;0.022;2023-07-31T14:57:47;8.90;;;3.97;;
37805;SDS011;25082;50.870;0.022;2023-07-31T15:00:13;6.82;;;4.35;;